الصفحة الرئيسية
METAR-TAF:

METAR-TAF

مطار :

سكاكا, السعودية

مطار الجوف المحلي

دائرة عرض: 29-47N, خط طول: 040-06E, ارتفاع: 689 متر

مراقبة الطقس الحالي

تاريخ ووقت الإصدار 19 دقيقة قبل الساعة 21:13UTC
ريح 18 عقدة من الغرب/الشمال الغربي
درجة الحرارة 22°درجة مئوية
الرطوبة 35%
ضغط 1011 hPa
الرؤية: 2000 متر
سماء صافية
هبوب الغبار

METAR: OESK 252113Z 29018KT 2000 BLDU SKC 22/06 Q1011

زمن: 00:32 (21:32 UTC)

توقعات

تاريخ ووقت الإصدار 10ساعات و 32 دقيقة قبل الساعة 11:00UTC
التوقعات صالحة من25 الساعة 12 UTC إلى 26 الساعة 18 UTC
ريح 10 عقدة من الغرب/الجنوب الغربي تتزايد حتى 20 عقدة
الرؤية: 7000 متر
غيوم قليلة على ارتفاع 4000 قدم
مؤقت
من 25 الساعة 12 UTC إلى 25 الساعة 24 UTC
الرؤية: 3500 متر
غيوم قليلة على ارتفاع 3500 قدم, مزنة ركامية.
هبوب الغبار, عاصفة رعدية, مطر

TAF: OESK 251100Z 2512/2618 24010G20KT 7000 FEW040 TEMPO 2512/2524 3500 BLDU TSRA FEW035CB

أرصاد الطقس والتوقعات من أكثر من 4000 مطار (تقارير الطقس للمطار METAR والتنبؤ بالطقس بالمطارTAF).

المحطات المتاحة هي النقط الصفراء والحمراء على الخريطة.

حرك المؤشر فوق النقطة لمعرفة اسم المحطة.

ثم انقر لمعرفة أرصاد وتوقعات الطقس.

لتغيير الخارطة: اضغط على الأزرار الخضراء مع رمز الصليب الأسود للتكبير. على الزر الأخضر مع شرطة للتصغير، أو على الأسهم الخضراء للخرائط المجاورة.


METAR-TAF: